createdAt,value
2023-04-06T00:00:20.860Z,6.6
2023-04-06T00:03:22.881Z,6.7
2023-04-06T00:06:24.801Z,6.2
2023-04-06T00:09:26.764Z,5.7
2023-04-06T00:12:28.737Z,6.2
2023-04-06T00:15:30.732Z,6.3
2023-04-06T00:18:32.656Z,7.3
2023-04-06T00:21:34.664Z,6.6
2023-04-06T00:24:36.623Z,7.1
2023-04-06T00:27:38.552Z,6.7
2023-04-06T00:30:40.543Z,6.9
2023-04-06T00:33:42.502Z,6.2
2023-04-06T00:36:44.443Z,7.8
2023-04-06T00:39:46.403Z,7.8
2023-04-06T00:42:48.358Z,7.5
2023-04-06T00:45:50.361Z,7.4
2023-04-06T00:48:52.303Z,7.2
2023-04-06T00:51:54.259Z,7.8
2023-04-06T00:54:56.255Z,6.9
2023-04-06T00:57:58.167Z,5.9
2023-04-06T01:01:00.258Z,7.7
2023-04-06T01:04:02.112Z,7
2023-04-06T01:07:04.122Z,8
2023-04-06T01:10:06.096Z,7.6
2023-04-06T01:13:08.589Z,6.3
2023-04-06T01:16:10.027Z,6.9
2023-04-06T01:19:11.969Z,6.8
2023-04-06T01:22:13.923Z,6.9
2023-04-06T01:25:15.917Z,6.8
2023-04-06T01:28:17.894Z,6.8
2023-04-06T01:31:19.879Z,6.7
2023-04-06T01:34:21.796Z,6.4
2023-04-06T01:37:23.806Z,6.3
2023-04-06T01:40:25.769Z,6.7
2023-04-06T01:43:27.726Z,5.6
2023-04-06T01:46:29.721Z,5.8
2023-04-06T01:49:31.627Z,6
2023-04-06T01:52:33.643Z,6.7
2023-04-06T01:55:35.562Z,6.2
2023-04-06T01:58:37.521Z,6.6
2023-04-06T02:01:39.496Z,6.9
2023-04-06T02:04:41.481Z,6.7
2023-04-06T02:07:43.454Z,6.6
2023-04-06T02:10:45.409Z,6.8
2023-04-06T02:13:47.398Z,6.5
2023-04-06T02:16:49.377Z,6.7
2023-04-06T02:19:51.323Z,6
2023-04-06T02:22:53.291Z,6.4
2023-04-06T02:25:55.288Z,5.7
2023-04-06T02:28:57.288Z,5.9
2023-04-06T02:31:59.229Z,6.9
2023-04-06T02:35:01.210Z,5.7
2023-04-06T02:38:03.183Z,5.2
2023-04-06T02:41:05.182Z,5.7
2023-04-06T02:44:07.158Z,6.8
2023-04-06T02:47:09.134Z,6.4
2023-04-06T02:50:11.111Z,6.5
2023-04-06T02:53:13.120Z,7.2
2023-04-06T02:56:15.081Z,7.5
2023-04-06T02:59:17.073Z,6.6
2023-04-06T03:02:19.024Z,6.2
2023-04-06T03:05:20.975Z,6.4
2023-04-06T03:08:22.920Z,6.7
2023-04-06T03:11:24.892Z,6.7
2023-04-06T03:14:26.891Z,6.8
2023-04-06T03:17:28.842Z,6.3
2023-04-06T03:20:30.818Z,6.7
2023-04-06T03:23:32.770Z,7.7
2023-04-06T03:26:34.736Z,6.7
2023-04-06T03:29:36.729Z,6.7
2023-04-06T03:32:38.720Z,7.7
2023-04-06T03:35:40.679Z,6.4
2023-04-06T03:38:42.597Z,6.7
2023-04-06T03:41:44.582Z,7.3
2023-04-06T03:44:46.555Z,6.8
2023-04-06T03:47:48.537Z,6.8
2023-04-06T03:50:50.453Z,6.1
2023-04-06T03:53:52.473Z,7.4
2023-04-06T03:56:54.493Z,6.3
2023-04-06T03:59:56.361Z,7.5
2023-04-06T04:02:58.386Z,7.3
2023-04-06T04:06:00.310Z,6.5
2023-04-06T04:09:02.257Z,7.6
2023-04-06T04:12:04.222Z,7.4
2023-04-06T04:15:06.182Z,7.5
2023-04-06T04:18:08.164Z,6.8
2023-04-06T04:21:10.144Z,6.9
2023-04-06T04:24:12.194Z,7.2
2023-04-06T04:27:14.114Z,7.7
2023-04-06T04:30:16.099Z,6.4
2023-04-06T04:33:18.049Z,6.5
2023-04-06T04:36:20.056Z,7.6
2023-04-06T04:39:22.152Z,7.4
2023-04-06T04:42:24.106Z,6.6
2023-04-06T04:45:26.087Z,6.9
2023-04-06T04:48:30.883Z,6.9
2023-04-06T04:51:32.835Z,7.3
2023-04-06T04:54:34.823Z,7.6
2023-04-06T04:57:36.817Z,6.9
2023-04-06T05:00:38.761Z,7
2023-04-06T05:03:40.880Z,7
2023-04-06T05:06:42.705Z,7.5
2023-04-06T05:09:44.685Z,7.7
2023-04-06T05:12:46.619Z,8
2023-04-06T05:15:48.630Z,6.8
2023-04-06T05:18:50.609Z,8.2
2023-04-06T05:21:52.548Z,7.6
2023-04-06T05:24:54.529Z,6.8
2023-04-06T05:27:56.534Z,7.9
2023-04-06T05:30:58.475Z,7.1
2023-04-06T05:34:00.417Z,7.6
2023-04-06T05:37:02.374Z,7.1
2023-04-06T05:40:04.308Z,7.8
2023-04-06T05:43:06.284Z,7.6
2023-04-06T05:46:08.296Z,7.4
2023-04-06T05:49:10.378Z,8.2
2023-04-06T05:52:12.165Z,8.2
2023-04-06T05:55:14.177Z,7.5
2023-04-06T05:58:16.080Z,8.7
2023-04-06T06:01:18.040Z,8.9
2023-04-06T06:04:19.997Z,9.9
2023-04-06T06:07:21.974Z,9.5
2023-04-06T06:10:23.914Z,10.4
2023-04-06T06:13:25.909Z,10.7
2023-04-06T06:16:27.859Z,9.7
2023-04-06T06:19:29.781Z,9.9
2023-04-06T06:22:31.754Z,9.1
2023-04-06T06:25:33.728Z,9.9
2023-04-06T06:28:35.725Z,10.7
2023-04-06T06:31:37.724Z,8.9
2023-04-06T06:34:39.682Z,7.9
2023-04-06T06:37:41.616Z,8.5
2023-04-06T06:40:43.578Z,8.2
2023-04-06T06:43:45.538Z,8.1
2023-04-06T06:46:47.504Z,7.4
2023-04-06T06:49:49.506Z,8.3
2023-04-06T06:52:51.455Z,7.9
2023-04-06T06:55:53.434Z,6.9
2023-04-06T06:58:55.402Z,7.6
2023-04-06T07:01:57.477Z,7.1
2023-04-06T07:04:59.313Z,8.6
2023-04-06T07:08:01.268Z,8.1
2023-04-06T07:11:03.264Z,7.6
2023-04-06T07:14:05.257Z,8.4
2023-04-06T07:17:07.279Z,7.3
2023-04-06T07:20:09.191Z,7.2
2023-04-06T07:23:11.197Z,8.2
2023-04-06T07:26:13.161Z,8.6
2023-04-06T07:29:15.113Z,8.4
2023-04-06T07:32:17.118Z,8.8
2023-04-06T07:35:19.104Z,8.2
2023-04-06T07:38:21.004Z,7.9
2023-04-06T07:41:22.983Z,9.5
2023-04-06T07:44:24.930Z,9.1
2023-04-06T07:47:26.907Z,7.7
2023-04-06T07:50:28.891Z,8.7
2023-04-06T07:53:30.867Z,8.5
2023-04-06T07:56:32.852Z,8.8
2023-04-06T07:59:34.912Z,8.2
2023-04-06T08:02:36.813Z,7.4
2023-04-06T08:05:38.785Z,8.3
2023-04-06T08:08:40.642Z,7.9
2023-04-06T08:11:42.613Z,7.6
2023-04-06T08:14:44.557Z,8.2
2023-04-06T08:17:46.598Z,6.9
2023-04-06T08:20:48.503Z,7.5
2023-04-06T08:23:50.457Z,7.1
2023-04-06T08:26:52.498Z,6.9
2023-04-06T08:29:54.492Z,7.7
2023-04-06T08:32:56.443Z,7.9
2023-04-06T08:35:58.410Z,7.7
2023-04-06T08:39:00.320Z,7.8
2023-04-06T08:42:02.314Z,7.1
2023-04-06T08:45:04.307Z,6
2023-04-06T08:48:06.277Z,7.2
2023-04-06T08:51:08.296Z,7.7
2023-04-06T08:54:10.299Z,7.2
2023-04-06T08:57:12.257Z,6.7
2023-04-06T09:00:14.187Z,7
2023-04-06T09:03:16.254Z,7.1
2023-04-06T09:06:18.085Z,7.1
2023-04-06T09:09:21.645Z,7.5
2023-04-06T09:12:22.004Z,6.2
2023-04-06T09:15:24.981Z,7.4
2023-04-06T09:18:25.922Z,7.2
2023-04-06T09:21:27.899Z,7
2023-04-06T09:24:29.878Z,7.5
2023-04-06T09:27:31.850Z,6.4
2023-04-06T09:30:33.802Z,6.8
2023-04-06T09:33:35.761Z,7.4
2023-04-06T09:36:37.722Z,6.6
2023-04-06T09:39:39.712Z,7.4
2023-04-06T09:42:41.687Z,6.8
2023-04-06T09:45:43.636Z,7.2
2023-04-06T09:48:45.608Z,7.9
2023-04-06T09:51:47.572Z,8
2023-04-06T09:54:49.539Z,7.8
2023-04-06T09:57:51.474Z,7.3
2023-04-06T10:00:54.554Z,7.2
2023-04-06T10:03:55.474Z,6.7
2023-04-06T10:06:57.386Z,7.5
2023-04-06T10:09:59.324Z,7.8
2023-04-06T10:13:01.277Z,6.9
2023-04-06T10:16:03.279Z,7.5
2023-04-06T10:19:05.290Z,7.7
2023-04-06T10:22:07.169Z,7.1
2023-04-06T10:25:09.135Z,7.3
2023-04-06T10:28:11.120Z,7.5
2023-04-06T10:31:13.042Z,6.2
2023-04-06T10:34:15.032Z,7.3
2023-04-06T10:37:17.059Z,6.9
2023-04-06T10:40:18.930Z,6.7
2023-04-06T10:43:20.904Z,6.3
2023-04-06T10:46:22.981Z,7.4
2023-04-06T10:49:26.577Z,7.7
2023-04-06T10:52:26.909Z,6.9
2023-04-06T10:55:28.765Z,7.2
2023-04-06T10:58:30.731Z,6.5
2023-04-06T11:01:32.719Z,7.5
2023-04-06T11:04:34.689Z,7
2023-04-06T11:07:36.621Z,6.4
2023-04-06T11:10:38.589Z,5.9
2023-04-06T11:13:40.546Z,7.7
2023-04-06T11:16:42.576Z,6.8
2023-04-06T11:19:44.481Z,8.4
2023-04-06T11:22:46.460Z,7.5
2023-04-06T11:25:48.424Z,7.3
2023-04-06T11:28:50.386Z,6.6
2023-04-06T11:31:52.402Z,8.2
2023-04-06T11:34:54.297Z,7.7
2023-04-06T11:37:56.888Z,7.9
2023-04-06T11:40:58.210Z,8.2
2023-04-06T11:44:00.404Z,8
2023-04-06T11:47:02.156Z,6.7
2023-04-06T11:50:04.137Z,7.7
2023-04-06T11:53:06.116Z,7.5
2023-04-06T11:56:08.043Z,7.5
2023-04-06T11:59:10.063Z,8.4
2023-04-06T12:02:11.989Z,7.1
2023-04-06T12:05:13.982Z,8
2023-04-06T12:08:15.900Z,7.2
2023-04-06T12:11:17.873Z,7.2
2023-04-06T12:14:19.839Z,8
2023-04-06T12:17:21.813Z,6.9
2023-04-06T12:20:26.772Z,7.7
2023-04-06T12:23:25.707Z,7.4
2023-04-06T12:26:27.680Z,7.8
2023-04-06T12:29:29.673Z,5.8
2023-04-06T12:32:31.621Z,7
2023-04-06T12:35:33.599Z,7.6
2023-04-06T12:38:35.584Z,5.7
2023-04-06T12:41:37.615Z,6.3
2023-04-06T12:44:39.603Z,6.3
2023-04-06T12:47:41.609Z,6.5
2023-04-06T12:50:43.542Z,6.4
2023-04-06T12:53:45.503Z,6.1
2023-04-06T12:56:47.462Z,6.9
2023-04-06T12:59:49.465Z,6.9
2023-04-06T13:02:51.439Z,6.8
2023-04-06T13:05:53.348Z,5.5
2023-04-06T13:08:55.287Z,5.7
2023-04-06T13:11:57.257Z,5
2023-04-06T13:14:59.222Z,5
2023-04-06T13:18:01.205Z,6.1
2023-04-06T13:21:03.180Z,5.4
2023-04-06T13:24:05.123Z,5.8
2023-04-06T13:27:07.072Z,4.8
2023-04-06T13:30:09.224Z,5.2
2023-04-06T13:33:11.024Z,4.8
2023-04-06T13:36:13.379Z,5.1
2023-04-06T13:39:14.943Z,6.4
2023-04-06T13:42:16.935Z,5.7
2023-04-06T13:45:18.884Z,5.7
2023-04-06T13:48:20.881Z,5.9
2023-04-06T13:51:22.789Z,6
2023-04-06T13:54:24.757Z,5.9
2023-04-06T13:57:26.725Z,4.9
2023-04-06T14:00:28.725Z,5.4
2023-04-06T14:03:30.660Z,5.9
2023-04-06T14:06:32.603Z,5
2023-04-06T14:09:34.571Z,5.4
2023-04-06T14:12:36.580Z,5.3
2023-04-06T14:15:38.529Z,4.5
2023-04-06T14:18:40.496Z,6.1
2023-04-06T14:21:42.437Z,5.4
2023-04-06T14:24:44.411Z,5
2023-04-06T14:27:46.382Z,5.5
2023-04-06T14:30:48.439Z,5.2
2023-04-06T14:33:50.397Z,5.6
2023-04-06T14:36:52.472Z,5.2
2023-04-06T14:39:54.305Z,5.4
2023-04-06T14:42:56.325Z,5.1
2023-04-06T14:45:58.280Z,4.5
2023-04-06T14:52:02.188Z,4.6
2023-04-06T14:55:04.502Z,4.8
2023-04-06T14:58:06.186Z,4.8
2023-04-06T15:01:08.203Z,4.6
2023-04-06T15:04:10.279Z,5.3
2023-04-06T15:07:12.080Z,5.2
2023-04-06T15:10:14.053Z,5.4
2023-04-06T15:13:16.061Z,5.8
2023-04-06T15:16:17.987Z,5.5
2023-04-06T15:19:19.951Z,5.2
2023-04-06T15:22:21.887Z,5.3
2023-04-06T15:25:23.873Z,5.9
2023-04-06T15:28:25.903Z,5
2023-04-06T15:31:36.382Z,5
2023-04-06T15:34:29.870Z,4.7
2023-04-06T15:37:31.882Z,5.8
2023-04-06T15:40:33.836Z,5.5
2023-04-06T15:43:35.803Z,5
2023-04-06T15:46:37.763Z,5
2023-04-06T15:49:39.719Z,4.5
2023-04-06T15:52:41.688Z,5.2
2023-04-06T15:55:43.674Z,4.7
2023-04-06T15:58:45.750Z,5.1
2023-04-06T16:01:47.596Z,5.2
2023-04-06T16:04:49.586Z,5.3
2023-04-06T16:07:51.472Z,5.4
2023-04-06T16:10:53.444Z,4.4
2023-04-06T16:13:55.766Z,3.8
2023-04-06T16:16:58.462Z,3.6
2023-04-06T16:19:59.331Z,3.7
2023-04-06T16:23:01.286Z,3.6
2023-04-06T16:26:03.246Z,4
2023-04-06T16:29:05.194Z,3.5
2023-04-06T16:32:07.331Z,3.6
2023-04-06T16:35:09.321Z,3.3
2023-04-06T16:38:11.169Z,3.6
2023-04-06T16:41:13.284Z,2.9
2023-04-06T16:44:15.271Z,2.9
2023-04-06T16:47:17.333Z,3.7
2023-04-06T16:50:19.286Z,3.7
2023-04-06T16:53:21.245Z,3.8
2023-04-06T16:56:23.269Z,3.7
2023-04-06T16:59:25.264Z,3
2023-04-06T17:02:27.378Z,2.6
2023-04-06T17:05:32.347Z,3.1
2023-04-06T17:08:34.311Z,3.9
2023-04-06T17:11:48.838Z,2.9
2023-04-06T17:14:43.538Z,3.1
2023-04-06T17:17:43.096Z,3.9
2023-04-06T17:20:45.041Z,3.1
2023-04-06T17:23:47.074Z,3
2023-04-06T17:26:49.260Z,1.9
2023-04-06T17:29:50.948Z,2
2023-04-06T17:32:52.906Z,2.6
2023-04-06T17:35:54.854Z,2.7
2023-04-06T17:38:56.775Z,3.1
2023-04-06T17:41:58.740Z,2.7
2023-04-06T17:45:00.719Z,2.5
2023-04-06T17:48:02.707Z,2.5
2023-04-06T17:51:04.642Z,2.4
2023-04-06T17:54:06.583Z,2.5
2023-04-06T17:57:08.549Z,2.2
2023-04-06T18:00:10.514Z,1.9
2023-04-06T18:03:12.518Z,2.2
2023-04-06T18:06:14.442Z,1.7
2023-04-06T18:09:16.395Z,2.2
2023-04-06T18:12:18.353Z,2
2023-04-06T18:15:20.335Z,2.2
2023-04-06T18:18:22.274Z,2.4
2023-04-06T18:21:24.273Z,2
2023-04-06T18:24:38.222Z,2.8
2023-04-06T18:27:28.173Z,2.3
2023-04-06T18:30:30.123Z,2.4
2023-04-06T18:33:32.098Z,2.6
2023-04-06T18:36:34.410Z,3
2023-04-06T18:39:36.017Z,3
2023-04-06T18:42:38.014Z,3.2
2023-04-06T18:45:39.931Z,2.9
2023-04-06T18:48:41.901Z,3.1
2023-04-06T18:51:43.845Z,3.1
2023-04-06T18:54:45.847Z,3.1
2023-04-06T18:57:47.796Z,3.8
2023-04-06T19:00:49.733Z,3.1
2023-04-06T19:03:51.867Z,3.4
2023-04-06T19:06:53.694Z,3.2
2023-04-06T19:09:55.656Z,3.1
2023-04-06T19:12:57.664Z,2.8
2023-04-06T19:15:59.582Z,2.9
2023-04-06T19:19:01.526Z,3.5
2023-04-06T19:22:03.507Z,3.1
2023-04-06T19:25:05.427Z,3.4
2023-04-06T19:28:07.443Z,2.9
2023-04-06T19:31:09.402Z,3.2
2023-04-06T19:34:11.337Z,4
2023-04-06T19:37:13.310Z,3.4
2023-04-06T19:40:15.316Z,4.3
2023-04-06T19:43:17.240Z,3.9
2023-04-06T19:46:19.216Z,3.3
2023-04-06T19:49:21.173Z,4.4
2023-04-06T19:52:23.115Z,5
2023-04-06T19:55:25.117Z,5.2
2023-04-06T19:58:27.065Z,4.1
2023-04-06T20:01:29.325Z,5.1
2023-04-06T20:04:31.170Z,4.4
2023-04-06T20:07:32.981Z,4.4
2023-04-06T20:10:34.937Z,4.9
2023-04-06T20:13:36.933Z,4.7
2023-04-06T20:16:38.905Z,5.1
2023-04-06T20:19:40.836Z,5.6
2023-04-06T20:22:42.791Z,5
2023-04-06T20:25:44.782Z,5
2023-04-06T20:28:46.749Z,4.8
2023-04-06T20:31:48.731Z,5
2023-04-06T20:34:50.664Z,6.1
2023-04-06T20:37:52.699Z,6.6
2023-04-06T20:40:54.642Z,5.8
2023-04-06T20:43:56.545Z,6.2
2023-04-06T20:46:58.553Z,6.2
2023-04-06T20:50:00.469Z,6.1
2023-04-06T20:53:02.449Z,6.5
2023-04-06T20:56:04.395Z,6.2
2023-04-06T20:59:06.365Z,5.6
2023-04-06T21:02:08.465Z,5.5
2023-04-06T21:05:10.648Z,7.2
2023-04-06T21:08:12.323Z,6.6
2023-04-06T21:11:14.330Z,7.8
2023-04-06T21:14:16.642Z,6.9
2023-04-06T21:17:18.275Z,7.1
2023-04-06T21:20:20.213Z,8
2023-04-06T21:23:22.165Z,7.3
2023-04-06T21:26:24.176Z,8
2023-04-06T21:29:26.098Z,7.8
2023-04-06T21:32:28.108Z,8.6
2023-04-06T21:35:30.030Z,8.5
2023-04-06T21:38:31.989Z,6.6
2023-04-06T21:41:33.970Z,7.9
2023-04-06T21:44:35.906Z,7.8
2023-04-06T21:47:37.925Z,7.7
2023-04-06T21:50:39.851Z,7.5
2023-04-06T21:53:41.801Z,7.8
2023-04-06T21:56:43.757Z,8.6
2023-04-06T21:59:45.993Z,8.7
2023-04-06T22:02:47.850Z,10.1
2023-04-06T22:05:49.656Z,9.3
2023-04-06T22:08:51.589Z,8.6
2023-04-06T22:11:53.552Z,9.4
2023-04-06T22:14:55.512Z,9.4
2023-04-06T22:17:57.493Z,10
2023-04-06T22:20:59.434Z,11.6
2023-04-06T22:24:01.389Z,12
2023-04-06T22:27:03.362Z,10.2
2023-04-06T22:30:05.315Z,11.3
2023-04-06T22:33:07.294Z,11.1
2023-04-06T22:36:09.230Z,11.3
2023-04-06T22:39:11.179Z,11.6
2023-04-06T22:42:13.126Z,13
2023-04-06T22:45:15.074Z,11.4
2023-04-06T22:48:17.057Z,12
2023-04-06T22:51:19.011Z,13.6
2023-04-06T22:54:21.333Z,14.1
2023-04-06T22:57:22.974Z,14
2023-04-06T23:00:24.941Z,13.3
2023-04-06T23:03:26.937Z,11.6
2023-04-06T23:06:28.842Z,13
2023-04-06T23:09:30.816Z,12.4
2023-04-06T23:12:32.760Z,13.5
2023-04-06T23:15:34.757Z,12.7
2023-04-06T23:18:36.702Z,13.1
2023-04-06T23:21:38.677Z,13.3
2023-04-06T23:24:40.914Z,14.3
2023-04-06T23:27:42.577Z,13.5
2023-04-06T23:30:44.565Z,12
2023-04-06T23:33:46.548Z,13.6
2023-04-06T23:36:48.580Z,12.5
2023-04-06T23:39:50.470Z,14
2023-04-06T23:42:52.450Z,14.5
2023-04-06T23:45:54.405Z,13.1
2023-04-06T23:48:56.366Z,14.8
2023-04-06T23:51:58.323Z,14
2023-04-06T23:55:00.302Z,14.8
2023-04-06T23:58:02.264Z,14.9
